Time;durP1;ratioP1;P1;durP2;ratioP2;P2;SDS_P1;SDS_P2;PMS_P1;PMS_P2;Temp;Humidity;BMP_temperature;BMP_pressure;BME280_temperature;BME280_humidity;BME280_pressure;Samples;Min_cycle;Max_cycle;Signal;HPM_P1;HPM_P2
2023/06/26 00:00:05;;;;;;;8.68;7.30;;;;;;;24.54;50.07;99818.53;4859242;29;20401;-92
2023/06/26 00:02:32;;;;;;;9.00;7.22;;;;;;;24.46;50.39;99819.69;4880115;29;20045;-92
2023/06/26 00:05:02;;;;;;;11.73;7.55;;;;;;;24.43;50.51;99819.28;4882023;29;20072;-90
2023/06/26 00:07:30;;;;;;;11.77;7.85;;;;;;;24.48;50.07;99816.75;4848266;29;20128;-91
2023/06/26 00:09:58;;;;;;;10.48;7.75;;;;;;;24.46;50.24;99816.16;4861892;29;20524;-91
2023/06/26 00:12:26;;;;;;;9.55;7.07;;;;;;;24.39;50.50;99809.94;4853553;29;20063;-89
2023/06/26 00:14:52;;;;;;;12.35;7.72;;;;;;;24.38;50.80;99819.97;4883778;29;20052;-91
2023/06/26 00:17:20;;;;;;;11.30;7.07;;;;;;;24.31;50.89;99819.19;4848935;29;20053;-91
2023/06/26 00:19:47;;;;;;;9.13;7.00;;;;;;;24.27;50.84;99820.69;4877833;29;20044;-90
2023/06/26 00:22:14;;;;;;;12.30;7.60;;;;;;;24.29;51.09;99826.72;4850841;29;20100;-91
2023/06/26 00:24:41;;;;;;;9.95;7.00;;;;;;;24.26;51.28;99821.75;4867055;29;20052;-91
2023/06/26 00:27:07;;;;;;;9.15;7.22;;;;;;;24.23;51.24;99825.75;4852643;29;20045;-91
2023/06/26 00:29:35;;;;;;;12.07;7.47;;;;;;;24.19;51.27;99824.53;4844486;29;20055;-92
2023/06/26 00:32:02;;;;;;;9.95;6.88;;;;;;;24.20;51.25;99815.38;4864774;29;20049;-91
2023/06/26 00:34:29;;;;;;;9.50;6.97;;;;;;;24.18;51.23;99822.06;4863087;29;20393;-90
2023/06/26 00:36:56;;;;;;;9.73;7.28;;;;;;;24.15;51.55;99820.63;4861515;29;20105;-89
2023/06/26 00:39:25;;;;;;;9.02;7.38;;;;;;;24.13;51.33;99824.63;4850542;29;20064;-90
2023/06/26 00:41:55;;;;;;;10.75;6.88;;;;;;;24.08;51.48;99816.34;4864400;29;20072;-90
2023/06/26 00:44:22;;;;;;;10.48;7.72;;;;;;;24.00;51.52;99820.16;4866724;29;20045;-93
2023/06/26 00:46:50;;;;;;;12.35;8.05;;;;;;;24.02;51.67;99823.50;4851366;29;20519;-90
2023/06/26 00:49:17;;;;;;;10.50;7.57;;;;;;;23.97;51.68;99812.50;4864703;29;20361;-90
2023/06/26 00:51:44;;;;;;;10.88;7.65;;;;;;;24.00;51.26;99821.00;4868498;29;20055;-91
2023/06/26 00:54:10;;;;;;;12.15;7.38;;;;;;;23.97;51.23;99805.19;4848503;29;20441;-90
2023/06/26 00:56:37;;;;;;;9.93;7.35;;;;;;;23.95;51.59;99804.56;4876092;29;20496;-91
2023/06/26 00:59:04;;;;;;;10.25;7.30;;;;;;;23.91;51.53;99799.81;4870264;29;20052;-90
2023/06/26 01:01:31;;;;;;;11.57;7.22;;;;;;;23.87;51.63;99807.56;4848558;29;20041;-91
2023/06/26 01:03:58;;;;;;;10.07;6.80;;;;;;;23.84;51.72;99797.19;4850311;29;20048;-91
2023/06/26 01:06:26;;;;;;;10.30;7.50;;;;;;;23.79;51.92;99808.69;4858812;29;20477;-93
2023/06/26 01:08:52;;;;;;;10.20;7.60;;;;;;;23.80;52.09;99807.63;4847903;29;20525;-90
2023/06/26 01:11:19;;;;;;;12.30;7.90;;;;;;;23.76;51.97;99800.16;4861497;29;20072;-91
2023/06/26 01:13:46;;;;;;;12.98;8.23;;;;;;;23.75;52.03;99801.22;4863304;29;20060;-91
2023/06/26 01:16:14;;;;;;;11.52;7.70;;;;;;;23.72;52.05;99802.50;4863666;29;20076;-92
2023/06/26 01:18:42;;;;;;;9.68;6.82;;;;;;;23.66;52.26;99802.50;4875489;29;20068;-90
2023/06/26 01:21:10;;;;;;;12.02;8.23;;;;;;;23.63;52.32;99803.78;4866765;29;20077;-90
2023/06/26 01:23:48;;;;;;;11.52;7.50;;;;;;;23.49;52.75;99800.38;4850860;29;20052;-89
2023/06/26 01:26:21;;;;;;;8.80;7.07;;;;;;;23.54;52.43;99803.25;4861196;29;20381;-89
2023/06/26 01:28:53;;;;;;;11.53;7.50;;;;;;;23.46;52.80;99803.53;4877707;29;20044;-90
2023/06/26 01:31:20;;;;;;;9.05;6.90;;;;;;;23.50;52.45;99793.88;4843308;29;20390;-91
2023/06/26 01:33:47;;;;;;;10.13;7.80;;;;;;;23.52;52.19;99794.50;4873759;29;20430;-90
2023/06/26 01:36:14;;;;;;;10.90;7.35;;;;;;;23.43;52.61;99793.09;4847199;29;20045;-92
2023/06/26 01:38:41;;;;;;;10.55;7.25;;;;;;;23.40;52.80;99793.53;4879602;29;20112;-90
2023/06/26 01:41:08;;;;;;;10.73;7.40;;;;;;;23.40;52.68;99796.25;4845306;29;20055;-91
2023/06/26 01:43:52;;;;;;;12.38;7.47;;;;;;;23.32;52.70;99794.66;4863414;29;20096;-92
2023/06/26 01:46:27;;;;;;;9.27;7.10;;;;;;;23.21;53.47;99784.53;4865831;29;20041;-90
2023/06/26 01:49:20;;;;;;;10.32;7.93;;;;;;;23.10;53.45;99788.78;4888921;29;20044;-90
2023/06/26 01:51:58;;;;;;;10.75;7.28;;;;;;;23.14;53.42;99784.56;4853233;29;20504;-91
2023/06/26 01:54:30;;;;;;;11.82;7.93;;;;;;;23.19;53.21;99787.44;4845552;29;20500;-92
2023/06/26 01:56:57;;;;;;;12.18;7.57;;;;;;;23.26;52.70;99787.41;4847079;29;20052;-92
2023/06/26 01:59:25;;;;;;;10.80;8.23;;;;;;;23.29;52.46;99781.56;4851601;29;20069;-92
2023/06/26 02:01:52;;;;;;;11.07;7.93;;;;;;;23.29;52.62;99788.84;4876987;29;20053;-93
2023/06/26 02:04:20;;;;;;;10.57;7.50;;;;;;;23.25;52.30;99782.19;4871949;29;20120;-91
2023/06/26 02:06:47;;;;;;;11.73;7.80;;;;;;;23.25;52.54;99784.91;4866205;29;20400;-92
2023/06/26 02:09:13;;;;;;;9.95;7.38;;;;;;;23.23;52.75;99781.59;4842880;29;20128;-92
2023/06/26 02:11:40;;;;;;;11.23;7.97;;;;;;;23.22;52.23;99779.94;4845174;29;20056;-90
2023/06/26 02:14:09;;;;;;;10.65;7.63;;;;;;;23.16;52.48;99792.50;4851745;29;20444;-91
2023/06/26 02:16:36;;;;;;;12.50;7.90;;;;;;;23.13;52.38;99784.81;4848151;29;20568;-91
2023/06/26 02:19:06;;;;;;;10.23;7.63;;;;;;;23.10;52.77;99783.38;4863480;29;20057;-93
2023/06/26 02:21:35;;;;;;;11.57;7.63;;;;;;;23.02;52.92;99780.06;4878021;29;20125;-91
2023/06/26 02:24:02;;;;;;;13.18;8.88;;;;;;;23.02;52.88;99786.31;4846079;29;20128;-91
2023/06/26 02:26:32;;;;;;;10.63;7.55;;;;;;;23.00;52.89;99785.72;4851605;29;20131;-92
2023/06/26 02:28:59;;;;;;;11.32;7.20;;;;;;;22.98;52.91;99795.13;4848594;29;20044;-93
2023/06/26 02:31:26;;;;;;;10.80;7.53;;;;;;;22.92;53.06;99792.19;4845327;29;20044;-93
2023/06/26 02:33:55;;;;;;;11.48;8.10;;;;;;;22.90;53.04;99788.88;4877889;29;20496;-92
2023/06/26 02:36:21;;;;;;;9.75;7.43;;;;;;;22.86;53.33;99790.34;4865106;29;20048;-91
2023/06/26 02:38:48;;;;;;;12.35;7.78;;;;;;;22.83;53.23;99787.25;4850720;29;20496;-91
2023/06/26 02:41:15;;;;;;;11.35;7.85;;;;;;;22.82;53.33;99789.13;4855900;29;20048;-92
2023/06/26 02:43:42;;;;;;;12.60;8.07;;;;;;;22.82;53.53;99777.44;4854032;29;20159;-91
2023/06/26 02:46:09;;;;;;;12.07;7.63;;;;;;;22.80;53.57;99779.56;4857615;29;20049;-90
2023/06/26 02:48:36;;;;;;;11.43;7.32;;;;;;;22.78;53.46;99787.06;4847114;29;20054;-91
2023/06/26 02:51:03;;;;;;;12.25;7.65;;;;;;;22.73;53.46;99785.84;4863232;29;20045;-92
2023/06/26 02:53:31;;;;;;;11.10;7.53;;;;;;;22.73;53.58;99780.41;4850123;29;20049;-91
2023/06/26 02:55:58;;;;;;;12.02;8.15;;;;;;;22.71;53.56;99778.97;4872956;29;20397;-91
2023/06/26 02:58:25;;;;;;;12.88;8.43;;;;;;;22.71;53.38;99774.38;4880152;29;20126;-89
2023/06/26 03:00:53;;;;;;;11.25;8.45;;;;;;;22.71;53.13;99773.56;4845612;29;21054;-90
2023/06/26 03:03:20;;;;;;;12.85;7.88;;;;;;;22.68;53.47;99777.53;4866178;29;20136;-91
2023/06/26 03:05:47;;;;;;;11.75;8.18;;;;;;;22.62;53.43;99775.69;4854338;29;20049;-91
2023/06/26 03:08:14;;;;;;;12.57;7.50;;;;;;;22.60;53.30;99776.97;4859176;29;20053;-91
2023/06/26 03:10:41;;;;;;;12.13;7.95;;;;;;;22.65;53.32;99782.56;4862489;29;20440;-90
2023/06/26 03:13:10;;;;;;;11.88;7.32;;;;;;;22.64;53.24;99786.28;4862800;29;20497;-91
2023/06/26 03:15:37;;;;;;;11.50;8.07;;;;;;;22.59;53.28;99780.69;4867473;29;20076;-89
2023/06/26 03:18:05;;;;;;;11.55;8.90;;;;;;;22.57;53.36;99783.63;4876485;29;20136;-82
2023/06/26 03:20:32;;;;;;;12.93;8.05;;;;;;;22.52;53.37;99781.56;4860386;29;20048;-83
2023/06/26 03:22:59;;;;;;;12.68;7.95;;;;;;;22.50;53.24;99790.94;4891247;29;20051;-84
2023/06/26 03:25:26;;;;;;;12.73;8.10;;;;;;;22.52;53.56;99792.41;4859098;29;20092;-83
2023/06/26 03:28:09;;;;;;;14.00;7.57;;;;;;;22.41;53.75;99789.50;4869582;29;20048;-83
2023/06/26 03:30:36;;;;;;;12.40;8.32;;;;;;;22.39;53.64;99792.44;4887660;29;20882;-83
2023/06/26 03:33:04;;;;;;;12.60;8.27;;;;;;;22.39;53.50;99792.44;4873837;29;20095;-83
2023/06/26 03:35:31;;;;;;;11.02;8.55;;;;;;;22.37;53.72;99794.53;4898578;29;20138;-83
2023/06/26 03:38:00;;;;;;;11.23;8.07;;;;;;;22.35;53.88;99793.91;4877435;29;20500;-83
2023/06/26 03:40:27;;;;;;;11.93;7.88;;;;;;;22.33;54.11;99801.41;4883311;29;20418;-83
2023/06/26 03:42:54;;;;;;;12.57;8.85;;;;;;;22.32;53.74;99789.75;4884834;29;20056;-83
2023/06/26 03:45:21;;;;;;;11.35;7.80;;;;;;;22.39;53.93;99803.28;4860367;29;20131;-83
2023/06/26 03:47:49;;;;;;;12.05;8.13;;;;;;;22.45;53.96;99797.00;4854587;29;20072;-83
2023/06/26 03:50:16;;;;;;;12.60;7.70;;;;;;;22.52;53.47;99795.09;4879230;29;20055;-83
2023/06/26 03:52:43;;;;;;;13.43;8.02;;;;;;;22.62;53.34;99802.75;4908744;29;20056;-83
2023/06/26 03:55:12;;;;;;;11.32;8.23;;;;;;;22.74;53.74;99798.34;4881346;29;20052;-83
2023/06/26 03:57:39;;;;;;;13.40;8.45;;;;;;;22.87;53.85;99799.28;4865957;29;20052;-83
2023/06/26 04:00:09;;;;;;;11.30;9.10;;;;;;;23.15;53.74;99807.91;4875586;29;20044;-84
2023/06/26 04:02:40;;;;;;;11.40;8.93;;;;;;;23.64;52.72;99801.91;4882575;29;20529;-83
2023/06/26 04:05:07;;;;;;;13.85;8.98;;;;;;;24.35;50.82;99804.13;4859188;29;20052;-84
2023/06/26 04:07:35;;;;;;;15.18;9.52;;;;;;;24.68;49.23;99797.50;4874721;29;20667;-84
2023/06/26 04:10:02;;;;;;;11.10;8.40;;;;;;;24.77;48.61;99798.00;4878192;29;20053;-84
2023/06/26 04:12:29;;;;;;;13.52;9.10;;;;;;;24.63;49.14;99802.78;4868374;29;20068;-84
2023/06/26 04:14:56;;;;;;;14.25;8.95;;;;;;;24.43;49.38;99795.69;4863693;29;20060;-84
2023/06/26 04:17:23;;;;;;;14.45;8.63;;;;;;;24.29;49.64;99807.75;4891210;29;20139;-84
2023/06/26 04:19:49;;;;;;;14.05;8.73;;;;;;;24.26;49.48;99805.47;4871463;29;20151;-84
2023/06/26 04:22:16;;;;;;;15.48;8.95;;;;;;;24.19;49.68;99810.97;4886340;29;20128;-84
2023/06/26 04:24:45;;;;;;;14.77;9.18;;;;;;;24.05;49.84;99804.88;4903690;29;20052;-84
2023/06/26 04:27:13;;;;;;;18.20;9.18;;;;;;;24.07;49.80;99796.53;4885697;29;20067;-85
2023/06/26 04:29:40;;;;;;;16.30;9.35;;;;;;;24.08;49.76;99806.31;4855425;29;20142;-84
2023/06/26 04:32:07;;;;;;;12.90;9.65;;;;;;;24.05;49.77;99799.44;4887095;29;20060;-84
2023/06/26 04:34:35;;;;;;;12.57;8.45;;;;;;;24.01;49.81;99806.38;4882655;29;20123;-85
2023/06/26 04:37:04;;;;;;;12.27;9.45;;;;;;;24.08;49.97;99800.88;4892011;29;20057;-84
2023/06/26 04:39:31;;;;;;;14.88;8.55;;;;;;;24.04;49.78;99799.66;4884479;29;20052;-84
2023/06/26 04:41:58;;;;;;;13.20;9.27;;;;;;;23.97;49.99;99809.78;4872874;29;20062;-84
2023/06/26 04:44:25;;;;;;;17.02;9.75;;;;;;;24.02;49.74;99802.63;4865769;29;20123;-84
2023/06/26 04:46:52;;;;;;;12.88;9.32;;;;;;;24.04;49.85;99800.50;4890448;29;20508;-84
2023/06/26 04:49:19;;;;;;;13.90;8.77;;;;;;;24.03;49.90;99803.44;4892181;29;20143;-84
2023/06/26 04:51:48;;;;;;;12.75;8.70;;;;;;;24.09;50.02;99802.53;4883507;29;20040;-84
2023/06/26 04:54:15;;;;;;;13.40;9.07;;;;;;;24.08;49.79;99805.47;4886118;29;20048;-84
2023/06/26 04:56:41;;;;;;;17.35;9.50;;;;;;;23.92;50.10;99809.63;4878658;29;20041;-84
2023/06/26 04:59:12;;;;;;;12.85;9.00;;;;;;;23.80;50.21;99810.34;4882620;29;20101;-84
2023/06/26 05:01:39;;;;;;;14.32;9.13;;;;;;;23.72;50.24;99802.50;4897374;29;20056;-84
2023/06/26 05:04:06;;;;;;;13.20;9.35;;;;;;;23.61;50.57;99801.31;4895414;29;20453;-83
2023/06/26 05:06:33;;;;;;;15.60;9.65;;;;;;;23.63;50.59;99811.91;4876316;29;20055;-83
2023/06/26 05:09:00;;;;;;;15.48;9.65;;;;;;;23.61;50.77;99812.16;4887374;29;20047;-83
2023/06/26 05:11:27;;;;;;;14.57;9.63;;;;;;;23.64;50.99;99808.16;4895066;29;20099;-83
2023/06/26 05:13:54;;;;;;;13.98;9.45;;;;;;;23.50;51.13;99807.44;4888693;29;20051;-83
2023/06/26 05:16:20;;;;;;;15.68;9.38;;;;;;;23.52;51.19;99809.94;4895566;29;20412;-83
2023/06/26 05:18:47;;;;;;;16.70;10.88;;;;;;;23.45;51.40;99801.84;4887094;29;20491;-83
2023/06/26 05:21:15;;;;;;;12.85;9.45;;;;;;;23.48;51.39;99812.25;4885545;29;20096;-83
2023/06/26 05:23:44;;;;;;;14.45;10.15;;;;;;;23.49;51.59;99802.25;4876806;29;20108;-83
2023/06/26 05:26:11;;;;;;;13.77;9.70;;;;;;;23.54;51.64;99810.53;4883025;29;20112;-83
2023/06/26 05:28:38;;;;;;;12.52;9.52;;;;;;;23.56;51.69;99809.28;4884250;29;20541;-83
2023/06/26 05:31:05;;;;;;;16.08;9.52;;;;;;;23.51;51.50;99806.41;4894522;29;20048;-83
2023/06/26 05:33:35;;;;;;;15.63;9.65;;;;;;;23.51;51.87;99808.25;4876312;29;20662;-83
2023/06/26 05:36:03;;;;;;;15.50;9.75;;;;;;;23.52;51.91;99810.75;4867721;29;20056;-83
2023/06/26 05:38:30;;;;;;;15.13;9.88;;;;;;;23.58;51.90;99803.63;4888460;29;20128;-83
2023/06/26 05:40:57;;;;;;;16.83;10.10;;;;;;;23.57;52.30;99807.38;4895148;29;20092;-84
2023/06/26 05:43:24;;;;;;;15.43;9.98;;;;;;;23.59;52.02;99808.00;4891559;29;20131;-83
2023/06/26 05:45:57;;;;;;;13.30;9.07;;;;;;;23.67;52.05;99805.00;4893255;29;20076;-83
2023/06/26 05:48:24;;;;;;;14.85;9.60;;;;;;;23.66;52.01;99800.66;4880563;29;20128;-83
2023/06/26 05:50:51;;;;;;;16.73;9.73;;;;;;;23.61;52.11;99801.31;4896279;29;20056;-83
2023/06/26 05:53:18;;;;;;;14.32;9.77;;;;;;;23.68;52.24;99793.09;4892836;29;20136;-83
2023/06/26 05:55:45;;;;;;;15.18;10.05;;;;;;;23.65;52.29;99800.84;4886639;29;20481;-83
2023/06/26 05:58:12;;;;;;;17.30;9.85;;;;;;;23.72;52.39;99796.22;4888742;29;20442;-83
2023/06/26 06:00:40;;;;;;;13.90;9.75;;;;;;;23.79;52.53;99797.84;4888328;29;20048;-83
2023/06/26 06:03:10;;;;;;;22.08;10.38;;;;;;;23.80;52.46;99802.19;4879631;29;20048;-83
2023/06/26 06:05:37;;;;;;;18.20;9.60;;;;;;;23.85;52.64;99793.41;4884884;29;20041;-83
2023/06/26 06:08:04;;;;;;;14.73;9.55;;;;;;;23.89;52.54;99802.75;4892977;29;20056;-83
2023/06/26 06:10:30;;;;;;;15.23;10.07;;;;;;;23.88;52.50;99797.53;4896645;29;20752;-83
2023/06/26 06:12:57;;;;;;;12.93;9.35;;;;;;;23.94;52.56;99794.78;4881399;29;20049;-83
2023/06/26 06:15:24;;;;;;;19.20;10.45;;;;;;;24.01;52.53;99800.13;4889793;29;20405;-83
2023/06/26 06:17:51;;;;;;;16.95;9.93;;;;;;;24.01;52.27;99803.66;4870140;29;20041;-83
2023/06/26 06:20:21;;;;;;;15.48;9.80;;;;;;;23.97;52.16;99801.63;4882267;29;21933;-83
2023/06/26 06:22:48;;;;;;;12.85;9.82;;;;;;;24.00;52.20;99804.72;4882640;29;20061;-83
2023/06/26 06:25:15;;;;;;;12.38;8.88;;;;;;;24.02;52.08;99801.78;4877755;29;20077;-83
2023/06/26 06:27:43;;;;;;;14.75;9.20;;;;;;;24.07;52.25;99801.94;4887313;29;20055;-83
2023/06/26 06:30:10;;;;;;;15.85;10.18;;;;;;;24.14;52.25;99807.28;4887630;29;20060;-83
2023/06/26 06:32:37;;;;;;;14.75;9.55;;;;;;;24.19;52.43;99813.69;4879898;29;20073;-83
2023/06/26 06:35:09;;;;;;;16.58;10.85;;;;;;;24.18;52.20;99809.31;4891998;29;20048;-83
2023/06/26 06:37:37;;;;;;;14.95;10.68;;;;;;;24.18;52.13;99806.63;4883200;29;20494;-83
2023/06/26 06:40:09;;;;;;;17.20;10.02;;;;;;;24.15;51.82;99804.34;4879439;29;20079;-83
2023/06/26 06:42:36;;;;;;;15.77;10.00;;;;;;;24.23;52.22;99808.66;4884964;29;20123;-84
2023/06/26 06:45:03;;;;;;;16.38;10.18;;;;;;;24.27;52.35;99801.69;4874501;29;20434;-83
2023/06/26 06:47:31;;;;;;;18.33;11.27;;;;;;;24.27;51.93;99799.84;4890153;29;20060;-83
2023/06/26 06:50:01;;;;;;;17.73;10.57;;;;;;;24.25;51.85;99804.66;4892080;29;20133;-83
2023/06/26 06:52:28;;;;;;;18.08;10.85;;;;;;;24.30;51.68;99797.72;4869612;29;20055;-83
2023/06/26 06:54:58;;;;;;;16.67;10.73;;;;;;;24.32;51.31;99796.44;4892329;29;20130;-83
2023/06/26 06:57:25;;;;;;;16.27;9.95;;;;;;;24.36;51.83;99799.53;4871871;29;20045;-83
2023/06/26 06:59:52;;;;;;;23.80;12.02;;;;;;;24.39;51.75;99790.94;4880224;29;20489;-83
2023/06/26 07:02:18;;;;;;;18.55;10.27;;;;;;;24.43;51.47;99795.69;4885414;29;20508;-83
2023/06/26 07:04:45;;;;;;;20.13;10.52;;;;;;;24.45;51.40;99790.03;4889907;29;20049;-83
2023/06/26 07:07:13;;;;;;;18.92;10.13;;;;;;;24.45;51.29;99790.91;4866247;29;20047;-83
2023/06/26 07:09:40;;;;;;;17.27;10.20;;;;;;;24.47;51.23;99787.94;4872590;29;20144;-83
2023/06/26 07:12:07;;;;;;;17.25;10.30;;;;;;;24.51;51.23;99786.44;4876566;29;20105;-83
2023/06/26 07:14:34;;;;;;;18.73;10.48;;;;;;;24.55;51.40;99784.06;4880237;29;20078;-83
2023/06/26 07:17:01;;;;;;;17.83;9.85;;;;;;;24.60;51.49;99786.94;4891689;29;20033;-83
2023/06/26 07:19:28;;;;;;;18.20;10.00;;;;;;;24.64;51.79;99775.41;4872448;29;20055;-83
2023/06/26 07:21:54;;;;;;;15.77;10.73;;;;;;;24.72;51.94;99776.13;4863284;29;20659;-83
2023/06/26 07:24:21;;;;;;;18.05;10.05;;;;;;;24.77;51.97;99774.38;4890700;29;20416;-83
2023/06/26 07:26:48;;;;;;;19.27;9.88;;;;;;;24.83;51.61;99776.19;4886386;29;20452;-83
2023/06/26 07:29:16;;;;;;;19.48;11.15;;;;;;;24.87;51.57;99771.94;4868135;29;20103;-83
2023/06/26 07:31:45;;;;;;;15.82;9.77;;;;;;;24.94;51.41;99776.47;4862467;29;20045;-83
2023/06/26 07:34:12;;;;;;;20.63;10.82;;;;;;;25.00;51.95;99772.81;4882610;29;20049;-83
2023/06/26 07:36:39;;;;;;;17.75;10.75;;;;;;;25.04;51.34;99766.69;4879917;29;20049;-83
2023/06/26 07:39:05;;;;;;;16.38;10.55;;;;;;;25.06;51.04;99766.44;4848003;29;20121;-83
2023/06/26 07:41:32;;;;;;;20.23;11.75;;;;;;;25.07;51.02;99768.94;4865657;29;20040;-83
2023/06/26 07:43:59;;;;;;;15.82;9.57;;;;;;;25.12;50.92;99773.69;4882880;29;20045;-83
2023/06/26 07:46:26;;;;;;;14.82;9.18;;;;;;;25.15;51.63;99765.06;4888882;29;20133;-83
2023/06/26 07:48:53;;;;;;;16.23;10.82;;;;;;;25.19;51.71;99771.72;4879334;29;20454;-83
2023/06/26 07:51:20;;;;;;;17.15;10.68;;;;;;;25.23;51.63;99762.03;4881793;29;20057;-83
2023/06/26 07:53:47;;;;;;;18.65;10.00;;;;;;;25.29;51.61;99762.97;4889967;29;20049;-83
2023/06/26 07:56:14;;;;;;;15.10;9.50;;;;;;;25.34;51.33;99757.69;4876184;29;20453;-83
2023/06/26 07:58:40;;;;;;;15.98;10.95;;;;;;;25.37;51.08;99753.69;4871874;29;20786;-83
2023/06/26 08:01:07;;;;;;;17.75;10.32;;;;;;;25.42;51.04;99756.53;4896612;29;20467;-83
2023/06/26 08:03:34;;;;;;;14.93;10.13;;;;;;;25.45;50.83;99748.72;4875246;29;20051;-84
2023/06/26 08:06:03;;;;;;;19.95;10.52;;;;;;;25.51;50.40;99760.53;4881809;29;20386;-83
2023/06/26 08:08:30;;;;;;;16.63;11.20;;;;;;;25.54;50.09;99751.88;4891803;29;20063;-83
2023/06/26 08:10:56;;;;;;;21.90;11.18;;;;;;;25.50;49.65;99753.44;4875886;29;20059;-83
2023/06/26 08:13:23;;;;;;;19.25;11.13;;;;;;;25.56;49.49;99757.94;4894418;29;20056;-83
2023/06/26 08:15:50;;;;;;;18.85;10.93;;;;;;;25.58;49.69;99763.97;4878534;29;20048;-84
2023/06/26 08:18:18;;;;;;;18.60;11.05;;;;;;;25.62;48.63;99748.00;4890065;29;20405;-83
2023/06/26 08:20:44;;;;;;;17.67;9.95;;;;;;;25.60;49.16;99750.97;4892584;29;20049;-84
2023/06/26 08:23:11;;;;;;;17.33;10.52;;;;;;;25.66;48.95;99746.47;4873202;29;20041;-83
2023/06/26 08:25:38;;;;;;;16.98;10.07;;;;;;;25.78;48.58;99741.84;4879440;29;20493;-83
2023/06/26 08:28:05;;;;;;;16.92;10.55;;;;;;;25.84;48.20;99750.94;4891024;29;20128;-83
2023/06/26 08:30:32;;;;;;;16.70;10.25;;;;;;;25.87;48.07;99751.31;4892680;29;20045;-83
2023/06/26 08:32:59;;;;;;;15.65;10.18;;;;;;;25.90;47.98;99750.88;4880328;29;20118;-83
2023/06/26 08:35:26;;;;;;;14.02;9.95;;;;;;;25.90;47.92;99742.69;4863174;29;20052;-83
2023/06/26 08:37:54;;;;;;;15.43;9.45;;;;;;;25.95;47.58;99741.97;4893364;29;20056;-83
2023/06/26 08:40:21;;;;;;;15.80;10.10;;;;;;;25.99;47.61;99743.97;4885923;29;20579;-83
2023/06/26 08:42:52;;;;;;;17.67;9.93;;;;;;;26.07;47.38;99750.94;4891027;29;20076;-83
2023/06/26 08:45:20;;;;;;;17.63;9.65;;;;;;;26.08;47.23;99736.28;4893198;29;20036;-83
2023/06/26 08:47:48;;;;;;;13.98;9.40;;;;;;;26.11;46.94;99734.97;4890730;29;20110;-83
2023/06/26 08:50:17;;;;;;;16.73;10.13;;;;;;;26.13;47.03;99732.81;4906490;29;20103;-83
2023/06/26 08:52:54;;;;;;;11.93;9.13;;;;;;;26.12;47.08;99731.19;4885778;29;20112;-83
2023/06/26 08:55:24;;;;;;;15.38;10.07;;;;;;;26.18;46.96;99739.22;4881706;29;20148;-83
2023/06/26 08:57:51;;;;;;;15.02;9.93;;;;;;;26.20;46.58;99736.22;4869836;29;20056;-83
2023/06/26 09:00:18;;;;;;;16.27;9.82;;;;;;;26.26;47.00;99731.75;4886181;29;20048;-83
2023/06/26 09:02:45;;;;;;;14.70;9.95;;;;;;;26.29;47.02;99729.34;4890062;29;20048;-83
2023/06/26 09:05:12;;;;;;;16.48;10.82;;;;;;;26.36;46.62;99729.22;4889274;29;20049;-83
2023/06/26 09:07:39;;;;;;;17.45;10.35;;;;;;;26.38;47.03;99735.22;4869046;29;20139;-84
2023/06/26 09:10:07;;;;;;;19.75;9.43;;;;;;;26.43;47.01;99738.06;4895931;29;20445;-84
2023/06/26 09:12:34;;;;;;;13.98;9.77;;;;;;;26.50;46.34;99736.03;4898074;29;20052;-83
2023/06/26 09:15:03;;;;;;;15.25;9.75;;;;;;;26.54;46.49;99737.22;4872094;29;20049;-83
2023/06/26 09:17:33;;;;;;;18.15;9.80;;;;;;;26.55;46.85;99738.88;4886348;29;20056;-84
2023/06/26 09:19:59;;;;;;;14.80;10.27;;;;;;;26.56;46.56;99746.00;4872814;29;20078;-82
2023/06/26 09:22:26;;;;;;;16.15;9.63;;;;;;;26.70;46.38;99743.78;4883548;29;20060;-83
2023/06/26 09:24:53;;;;;;;15.88;9.68;;;;;;;26.68;46.33;99745.09;4886694;29;20489;-83
2023/06/26 09:27:20;;;;;;;13.35;9.65;;;;;;;26.69;46.04;99741.28;4874935;29;20405;-83
2023/06/26 09:29:48;;;;;;;13.93;9.80;;;;;;;26.74;46.53;99744.13;4875556;29;20049;-83
2023/06/26 09:32:15;;;;;;;12.55;9.45;;;;;;;26.80;45.99;99741.25;4890429;29;20048;-83
2023/06/26 09:34:44;;;;;;;18.67;9.27;;;;;;;26.85;46.25;99746.78;4896835;29;20056;-83
2023/06/26 09:37:14;;;;;;;11.85;8.77;;;;;;;26.93;46.17;99744.75;4885663;29;20120;-83
2023/06/26 09:39:40;;;;;;;11.90;8.98;;;;;;;26.98;45.62;99737.47;4893441;29;20132;-84
2023/06/26 09:42:07;;;;;;;14.80;9.80;;;;;;;27.01;45.51;99760.69;4890255;29;20630;-82
2023/06/26 09:44:34;;;;;;;11.70;9.13;;;;;;;26.98;45.80;99753.00;4884365;29;20631;-82
2023/06/26 09:47:04;;;;;;;15.38;9.75;;;;;;;26.96;45.69;99750.53;4862329;29;20060;-82
2023/06/26 09:49:31;;;;;;;14.80;9.68;;;;;;;27.00;45.57;99767.22;4872335;29;20048;-82
2023/06/26 09:52:00;;;;;;;12.55;9.82;;;;;;;26.99;45.61;99752.75;4884149;29;20044;-82
2023/06/26 09:54:29;;;;;;;15.48;11.00;;;;;;;27.05;45.61;99764.59;4868273;29;20052;-82
2023/06/26 09:57:06;;;;;;;13.93;9.52;;;;;;;27.10;45.74;99763.84;4876323;29;20081;-83
2023/06/26 09:59:33;;;;;;;15.40;8.90;;;;;;;27.14;46.07;99744.00;4883079;29;20568;-84
2023/06/26 10:02:00;;;;;;;14.25;10.55;;;;;;;27.21;45.55;99763.78;4895615;29;20541;-82
2023/06/26 10:04:27;;;;;;;14.88;9.50;;;;;;;27.24;45.68;99757.84;4868310;29;20058;-83
2023/06/26 10:06:58;;;;;;;14.35;10.27;;;;;;;27.21;45.93;99757.53;4881783;29;20067;-82
2023/06/26 10:09:25;;;;;;;13.50;9.93;;;;;;;27.16;45.77;99763.69;4877288;29;20067;-83
2023/06/26 10:12:02;;;;;;;14.30;9.90;;;;;;;27.16;45.89;99758.22;4876411;29;20470;-82
2023/06/26 10:14:33;;;;;;;15.88;10.32;;;;;;;27.19;45.59;99740.59;4893574;29;20100;-82
2023/06/26 10:17:01;;;;;;;17.50;11.10;;;;;;;27.19;45.85;99752.31;4887450;29;20393;-83
2023/06/26 10:19:29;;;;;;;15.63;10.25;;;;;;;27.20;45.70;99750.44;4885423;29;20051;-83
2023/06/26 10:21:58;;;;;;;16.73;11.15;;;;;;;27.23;46.02;99745.31;4886443;29;20055;-82
2023/06/26 10:24:26;;;;;;;16.63;10.95;;;;;;;27.23;46.05;99739.84;4873881;29;20374;-82
2023/06/26 10:26:57;;;;;;;15.65;10.85;;;;;;;27.30;45.94;99744.28;4876348;29;20052;-83
2023/06/26 10:29:25;;;;;;;17.67;11.13;;;;;;;27.31;46.18;99745.97;4876129;29;20049;-82
2023/06/26 10:31:56;;;;;;;16.77;10.80;;;;;;;27.35;46.37;99741.66;4880863;29;20045;-83
2023/06/26 10:34:24;;;;;;;15.73;10.80;;;;;;;27.34;46.20;99751.75;4862000;29;20131;-82
2023/06/26 10:37:01;;;;;;;15.68;10.80;;;;;;;27.30;45.98;99745.16;4882308;29;20148;-83
2023/06/26 10:39:45;;;;;;;16.98;10.68;;;;;;;27.33;46.08;99747.38;4887805;29;20051;-82
2023/06/26 10:42:12;;;;;;;21.27;12.10;;;;;;;27.39;46.06;99748.28;4876872;29;20146;-83
2023/06/26 10:44:43;;;;;;;14.95;10.90;;;;;;;27.39;46.34;99751.00;4889590;29;20052;-82
2023/06/26 10:47:11;;;;;;;19.08;12.05;;;;;;;27.39;46.36;99754.53;4874364;29;20084;-82
2023/06/26 10:49:42;;;;;;;19.23;10.88;;;;;;;27.42;46.64;99754.03;4895374;29;20098;-82
2023/06/26 10:52:08;;;;;;;17.55;12.13;;;;;;;27.41;46.48;99743.41;4884775;29;20052;-81
2023/06/26 10:54:37;;;;;;;17.23;12.32;;;;;;;27.40;46.72;99728.94;4864592;29;20061;-82
2023/06/26 10:57:04;;;;;;;15.18;11.15;;;;;;;27.39;46.43;99734.63;4883195;29;20037;-82
2023/06/26 10:59:32;;;;;;;15.27;11.68;;;;;;;27.36;46.62;99744.13;4860758;29;20040;-82
2023/06/26 11:01:59;;;;;;;15.73;11.23;;;;;;;27.34;46.59;99738.09;4877053;29;20072;-82
2023/06/26 11:04:47;;;;;;;17.27;11.02;;;;;;;27.30;47.13;99739.69;4883798;29;20111;-82
2023/06/26 11:07:27;;;;;;;15.85;11.10;;;;;;;27.34;47.26;99740.00;4866206;29;20060;-82
2023/06/26 11:10:09;;;;;;;14.40;10.13;;;;;;;27.41;47.77;99738.78;4886864;29;20048;-82
2023/06/26 11:12:43;;;;;;;17.52;11.43;;;;;;;27.44;46.79;99748.34;4873829;29;20598;-82
2023/06/26 11:15:12;;;;;;;17.15;11.88;;;;;;;27.52;47.20;99738.94;4884096;29;20055;-82
2023/06/26 11:17:41;;;;;;;18.45;10.85;;;;;;;27.56;47.03;99738.19;4884758;29;20056;-83
2023/06/26 11:20:15;;;;;;;16.23;10.60;;;;;;;27.59;46.91;99755.94;4877806;29;20079;-82
2023/06/26 11:22:42;;;;;;;16.08;10.38;;;;;;;27.63;46.92;99751.63;4886074;29;20083;-82
2023/06/26 11:25:10;;;;;;;16.90;10.77;;;;;;;27.66;47.22;99745.69;4886569;29;20416;-82
2023/06/26 11:27:41;;;;;;;14.02;10.98;;;;;;;27.63;47.19;99754.34;4912643;29;20048;-81